sensor_id;sensor_type;location;lat;lon;timestamp;noise_LAeq;noise_LA_min;noise_LA_max;noise_LA01;noise_LA95
80324;Laerm;69639;52.380;9.962;2023-06-26T00:00:56;32.56;30.23;36.82;;
80324;Laerm;69639;52.380;9.962;2023-06-26T00:02:58;32.44;30.25;34.48;;
80324;Laerm;69639;52.380;9.962;2023-06-26T00:04:59;32.40;30.10;36.27;;
80324;Laerm;69639;52.380;9.962;2023-06-26T00:07:01;32.41;30.28;34.71;;
80324;Laerm;69639;52.380;9.962;2023-06-26T00:09:03;32.29;30.33;34.14;;
80324;Laerm;69639;52.380;9.962;2023-06-26T00:11:04;32.38;30.22;35.01;;
80324;Laerm;69639;52.380;9.962;2023-06-26T00:13:06;32.38;30.12;45.02;;
80324;Laerm;69639;52.380;9.962;2023-06-26T00:15:08;32.39;30.53;35.98;;
80324;Laerm;69639;52.380;9.962;2023-06-26T00:17:11;32.40;30.28;34.27;;
80324;Laerm;69639;52.380;9.962;2023-06-26T00:19:13;32.38;30.35;40.90;;
80324;Laerm;69639;52.380;9.962;2023-06-26T00:21:14;32.47;30.21;45.61;;
80324;Laerm;69639;52.380;9.962;2023-06-26T00:23:17;32.61;30.23;39.12;;
80324;Laerm;69639;52.380;9.962;2023-06-26T00:25:19;32.81;30.45;42.32;;
80324;Laerm;69639;52.380;9.962;2023-06-26T00:27:20;33.66;30.33;48.27;;
80324;Laerm;69639;52.380;9.962;2023-06-26T00:29:22;32.90;26.37;49.83;;
80324;Laerm;69639;52.380;9.962;2023-06-26T00:31:24;29.54;26.28;52.04;;
80324;Laerm;69639;52.380;9.962;2023-06-26T00:33:25;27.59;26.35;30.46;;
80324;Laerm;69639;52.380;9.962;2023-06-26T00:35:27;27.34;26.15;29.72;;
80324;Laerm;69639;52.380;9.962;2023-06-26T00:37:29;27.35;26.08;31.14;;
80324;Laerm;69639;52.380;9.962;2023-06-26T00:39:30;27.45;26.28;30.58;;
80324;Laerm;69639;52.380;9.962;2023-06-26T00:41:32;27.49;26.27;29.59;;
80324;Laerm;69639;52.380;9.962;2023-06-26T00:43:34;48.00;26.14;74.12;;
80324;Laerm;69639;52.380;9.962;2023-06-26T00:45:36;28.56;26.11;49.87;;
80324;Laerm;69639;52.380;9.962;2023-06-26T00:47:43;27.32;25.99;30.28;;
80324;Laerm;69639;52.380;9.962;2023-06-26T00:49:45;27.35;26.23;31.35;;
80324;Laerm;69639;52.380;9.962;2023-06-26T00:51:48;27.31;26.21;32.39;;
80324;Laerm;69639;52.380;9.962;2023-06-26T00:53:52;27.29;26.04;30.10;;
80324;Laerm;69639;52.380;9.962;2023-06-26T00:55:54;27.35;26.25;39.38;;
80324;Laerm;69639;52.380;9.962;2023-06-26T00:57:56;27.28;25.84;29.05;;
80324;Laerm;69639;52.380;9.962;2023-06-26T01:00:06;27.29;25.74;29.07;;
80324;Laerm;69639;52.380;9.962;2023-06-26T01:02:08;27.32;25.97;31.11;;
80324;Laerm;69639;52.380;9.962;2023-06-26T01:04:10;27.36;26.21;29.66;;
80324;Laerm;69639;52.380;9.962;2023-06-26T01:06:13;27.41;26.20;28.91;;
80324;Laerm;69639;52.380;9.962;2023-06-26T01:08:16;27.33;25.99;29.41;;
80324;Laerm;69639;52.380;9.962;2023-06-26T01:10:19;27.56;26.28;30.57;;
80324;Laerm;69639;52.380;9.962;2023-06-26T01:12:21;27.41;26.15;35.41;;
80324;Laerm;69639;52.380;9.962;2023-06-26T01:14:23;27.35;26.33;29.64;;
80324;Laerm;69639;52.380;9.962;2023-06-26T01:16:26;27.32;26.27;28.88;;
80324;Laerm;69639;52.380;9.962;2023-06-26T01:18:30;27.32;26.20;31.59;;
80324;Laerm;69639;52.380;9.962;2023-06-26T01:20:39;27.93;26.23;41.36;;
80324;Laerm;69639;52.380;9.962;2023-06-26T01:23:04;27.50;26.23;30.42;;
80324;Laerm;69639;52.380;9.962;2023-06-26T01:25:15;27.34;26.09;31.05;;
80324;Laerm;69639;52.380;9.962;2023-06-26T01:27:20;27.46;26.32;30.59;;
80324;Laerm;69639;52.380;9.962;2023-06-26T01:29:23;27.38;26.24;29.88;;
80324;Laerm;69639;52.380;9.962;2023-06-26T01:31:26;27.32;26.02;28.89;;
80324;Laerm;69639;52.380;9.962;2023-06-26T01:33:29;27.36;26.21;29.46;;
80324;Laerm;69639;52.380;9.962;2023-06-26T01:35:31;27.35;26.23;29.67;;
80324;Laerm;69639;52.380;9.962;2023-06-26T01:37:33;27.35;26.32;29.17;;
80324;Laerm;69639;52.380;9.962;2023-06-26T01:39:35;27.33;26.19;28.83;;
80324;Laerm;69639;52.380;9.962;2023-06-26T01:41:36;27.39;26.05;28.87;;
80324;Laerm;69639;52.380;9.962;2023-06-26T01:46:39;27.39;26.21;41.28;;
80324;Laerm;69639;52.380;9.962;2023-06-26T01:49:04;27.33;26.15;30.38;;
80324;Laerm;69639;52.380;9.962;2023-06-26T01:51:08;27.37;26.14;29.88;;
80324;Laerm;69639;52.380;9.962;2023-06-26T01:53:12;27.31;26.18;30.06;;
80324;Laerm;69639;52.380;9.962;2023-06-26T01:57:40;28.80;26.19;46.26;;
80324;Laerm;69639;52.380;9.962;2023-06-26T01:59:42;27.33;26.09;32.24;;
80324;Laerm;69639;52.380;9.962;2023-06-26T02:01:45;32.27;26.21;51.17;;
80324;Laerm;69639;52.380;9.962;2023-06-26T02:03:47;35.12;29.76;56.83;;
80324;Laerm;69639;52.380;9.962;2023-06-26T02:05:50;32.69;30.59;37.90;;
80324;Laerm;69639;52.380;9.962;2023-06-26T02:07:51;32.87;30.38;44.47;;
80324;Laerm;69639;52.380;9.962;2023-06-26T02:09:54;32.63;30.58;36.03;;
80324;Laerm;69639;52.380;9.962;2023-06-26T02:11:55;32.74;30.70;34.65;;
80324;Laerm;69639;52.380;9.962;2023-06-26T02:13:57;32.63;30.53;35.68;;
80324;Laerm;69639;52.380;9.962;2023-06-26T02:15:59;32.81;30.40;47.67;;
80324;Laerm;69639;52.380;9.962;2023-06-26T02:18:00;32.57;30.78;35.16;;
80324;Laerm;69639;52.380;9.962;2023-06-26T02:20:02;32.52;30.54;34.76;;
80324;Laerm;69639;52.380;9.962;2023-06-26T02:22:04;32.67;29.91;42.15;;
80324;Laerm;69639;52.380;9.962;2023-06-26T02:24:06;32.54;30.31;40.03;;
80324;Laerm;69639;52.380;9.962;2023-06-26T02:26:07;32.65;30.70;47.98;;
80324;Laerm;69639;52.380;9.962;2023-06-26T02:28:09;32.47;30.23;34.51;;
80324;Laerm;69639;52.380;9.962;2023-06-26T02:30:11;32.44;30.56;34.92;;
80324;Laerm;69639;52.380;9.962;2023-06-26T02:32:12;32.46;29.88;34.64;;
80324;Laerm;69639;52.380;9.962;2023-06-26T02:34:14;32.56;30.44;36.28;;
80324;Laerm;69639;52.380;9.962;2023-06-26T02:36:16;32.55;30.54;35.20;;
80324;Laerm;69639;52.380;9.962;2023-06-26T02:38:17;32.52;30.63;35.33;;
80324;Laerm;69639;52.380;9.962;2023-06-26T02:40:19;32.68;30.27;38.07;;
80324;Laerm;69639;52.380;9.962;2023-06-26T02:42:21;32.61;30.47;39.08;;
80324;Laerm;69639;52.380;9.962;2023-06-26T02:44:23;32.55;30.45;38.20;;
80324;Laerm;69639;52.380;9.962;2023-06-26T02:46:24;32.62;30.15;36.39;;
80324;Laerm;69639;52.380;9.962;2023-06-26T02:48:26;32.72;30.25;39.20;;
80324;Laerm;69639;52.380;9.962;2023-06-26T02:50:28;34.48;30.38;52.28;;
80324;Laerm;69639;52.380;9.962;2023-06-26T02:52:29;32.67;30.40;42.57;;
80324;Laerm;69639;52.380;9.962;2023-06-26T02:54:31;33.37;30.44;47.04;;
80324;Laerm;69639;52.380;9.962;2023-06-26T02:56:33;32.37;30.23;34.70;;
80324;Laerm;69639;52.380;9.962;2023-06-26T02:58:34;33.73;27.09;50.11;;
80324;Laerm;69639;52.380;9.962;2023-06-26T03:00:36;28.78;26.07;38.20;;
80324;Laerm;69639;52.380;9.962;2023-06-26T03:02:38;38.03;26.29;66.30;;
80324;Laerm;69639;52.380;9.962;2023-06-26T03:04:39;33.92;26.47;54.19;;
80324;Laerm;69639;52.380;9.962;2023-06-26T03:06:41;34.55;27.05;43.98;;
80324;Laerm;69639;52.380;9.962;2023-06-26T03:08:43;34.40;26.68;47.88;;
80324;Laerm;69639;52.380;9.962;2023-06-26T03:10:44;33.68;26.26;43.01;;
80324;Laerm;69639;52.380;9.962;2023-06-26T03:12:46;33.44;26.72;44.26;;
80324;Laerm;69639;52.380;9.962;2023-06-26T03:14:48;31.94;26.68;41.86;;
80324;Laerm;69639;52.380;9.962;2023-06-26T03:16:49;32.10;26.66;43.27;;
80324;Laerm;69639;52.380;9.962;2023-06-26T03:18:51;43.54;26.91;71.17;;
80324;Laerm;69639;52.380;9.962;2023-06-26T03:20:54;33.03;26.82;41.85;;
80324;Laerm;69639;52.380;9.962;2023-06-26T03:22:56;33.69;26.48;47.61;;
80324;Laerm;69639;52.380;9.962;2023-06-26T03:24:57;33.61;26.35;42.85;;
80324;Laerm;69639;52.380;9.962;2023-06-26T03:26:59;32.65;26.70;43.91;;
80324;Laerm;69639;52.380;9.962;2023-06-26T03:29:01;32.87;27.10;44.67;;
80324;Laerm;69639;52.380;9.962;2023-06-26T03:31:02;36.13;27.05;47.07;;
80324;Laerm;69639;52.380;9.962;2023-06-26T03:33:04;41.38;26.67;70.58;;
80324;Laerm;69639;52.380;9.962;2023-06-26T03:35:06;45.19;26.49;68.64;;
80324;Laerm;69639;52.380;9.962;2023-06-26T03:37:08;32.46;28.08;46.36;;
80324;Laerm;69639;52.380;9.962;2023-06-26T03:39:10;32.26;27.93;46.67;;
80324;Laerm;69639;52.380;9.962;2023-06-26T03:41:11;33.05;27.78;48.57;;
80324;Laerm;69639;52.380;9.962;2023-06-26T03:43:13;35.14;27.73;56.83;;
80324;Laerm;69639;52.380;9.962;2023-06-26T03:45:15;31.82;27.89;45.04;;
80324;Laerm;69639;52.380;9.962;2023-06-26T03:47:16;32.48;27.64;45.41;;
80324;Laerm;69639;52.380;9.962;2023-06-26T03:49:18;34.03;28.42;45.86;;
80324;Laerm;69639;52.380;9.962;2023-06-26T03:51:20;35.68;27.89;59.14;;
80324;Laerm;69639;52.380;9.962;2023-06-26T03:53:21;38.68;27.59;70.88;;
80324;Laerm;69639;52.380;9.962;2023-06-26T03:55:23;30.39;27.70;42.36;;
80324;Laerm;69639;52.380;9.962;2023-06-26T03:57:25;30.75;27.19;51.41;;
80324;Laerm;69639;52.380;9.962;2023-06-26T03:59:26;31.63;28.15;46.76;;
80324;Laerm;69639;52.380;9.962;2023-06-26T04:01:28;32.84;28.00;48.33;;
80324;Laerm;69639;52.380;9.962;2023-06-26T04:03:30;34.95;28.09;51.41;;
80324;Laerm;69639;52.380;9.962;2023-06-26T04:05:32;34.62;27.89;45.66;;
80324;Laerm;69639;52.380;9.962;2023-06-26T04:07:33;30.38;27.54;41.28;;
80324;Laerm;69639;52.380;9.962;2023-06-26T04:09:35;31.43;27.82;39.30;;
80324;Laerm;69639;52.380;9.962;2023-06-26T04:11:37;30.25;27.68;45.00;;
80324;Laerm;69639;52.380;9.962;2023-06-26T04:13:38;37.25;27.63;56.29;;
80324;Laerm;69639;52.380;9.962;2023-06-26T04:15:40;33.82;27.66;44.67;;
80324;Laerm;69639;52.380;9.962;2023-06-26T04:17:42;34.57;27.57;47.45;;
80324;Laerm;69639;52.380;9.962;2023-06-26T04:19:43;34.33;28.46;58.39;;
80324;Laerm;69639;52.380;9.962;2023-06-26T04:21:45;30.87;27.54;44.24;;
80324;Laerm;69639;52.380;9.962;2023-06-26T04:23:47;30.22;27.50;45.07;;
80324;Laerm;69639;52.380;9.962;2023-06-26T04:25:49;29.57;27.41;39.63;;
80324;Laerm;69639;52.380;9.962;2023-06-26T04:27:50;31.12;27.77;48.44;;
80324;Laerm;69639;52.380;9.962;2023-06-26T04:29:52;29.60;27.48;41.16;;
80324;Laerm;69639;52.380;9.962;2023-06-26T04:31:54;32.24;27.71;55.31;;
80324;Laerm;69639;52.380;9.962;2023-06-26T04:33:55;30.69;27.66;45.46;;
80324;Laerm;69639;52.380;9.962;2023-06-26T04:36:05;35.56;27.51;57.71;;
80324;Laerm;69639;52.380;9.962;2023-06-26T04:38:15;32.02;27.90;50.94;;
80324;Laerm;69639;52.380;9.962;2023-06-26T04:40:17;31.04;27.84;44.12;;
80324;Laerm;69639;52.380;9.962;2023-06-26T04:42:19;30.62;27.91;42.35;;
80324;Laerm;69639;52.380;9.962;2023-06-26T04:44:20;30.39;27.66;45.51;;
80324;Laerm;69639;52.380;9.962;2023-06-26T04:46:22;31.75;27.98;47.48;;
80324;Laerm;69639;52.380;9.962;2023-06-26T04:48:24;31.80;28.49;44.49;;
80324;Laerm;69639;52.380;9.962;2023-06-26T04:50:26;30.73;28.10;42.22;;
80324;Laerm;69639;52.380;9.962;2023-06-26T04:52:27;30.90;27.92;48.90;;
80324;Laerm;69639;52.380;9.962;2023-06-26T04:54:29;33.57;28.23;46.43;;
80324;Laerm;69639;52.380;9.962;2023-06-26T04:56:31;33.84;28.70;53.17;;
80324;Laerm;69639;52.380;9.962;2023-06-26T04:58:32;31.97;28.07;46.58;;
80324;Laerm;69639;52.380;9.962;2023-06-26T05:00:34;44.95;26.54;65.27;;
80324;Laerm;69639;52.380;9.962;2023-06-26T05:02:36;32.11;26.60;44.26;;
80324;Laerm;69639;52.380;9.962;2023-06-26T05:04:38;30.55;26.93;51.64;;
80324;Laerm;69639;52.380;9.962;2023-06-26T05:06:39;29.87;26.97;49.00;;
80324;Laerm;69639;52.380;9.962;2023-06-26T05:08:41;28.83;26.87;45.60;;
80324;Laerm;69639;52.380;9.962;2023-06-26T05:10:43;28.65;26.77;37.70;;
80324;Laerm;69639;52.380;9.962;2023-06-26T05:12:45;30.98;26.69;47.77;;
80324;Laerm;69639;52.380;9.962;2023-06-26T05:14:47;30.80;26.31;52.65;;
80324;Laerm;69639;52.380;9.962;2023-06-26T05:16:48;31.40;26.59;58.37;;
80324;Laerm;69639;52.380;9.962;2023-06-26T05:18:56;35.05;27.11;60.70;;
80324;Laerm;69639;52.380;9.962;2023-06-26T05:20:58;28.99;27.33;43.62;;
80324;Laerm;69639;52.380;9.962;2023-06-26T05:23:10;28.90;27.26;39.09;;
80324;Laerm;69639;52.380;9.962;2023-06-26T05:25:13;28.97;26.68;37.12;;
80324;Laerm;69639;52.380;9.962;2023-06-26T05:27:16;29.01;26.81;41.05;;
80324;Laerm;69639;52.380;9.962;2023-06-26T05:29:22;28.85;26.84;40.24;;
80324;Laerm;69639;52.380;9.962;2023-06-26T05:31:27;28.90;26.92;39.38;;
80324;Laerm;69639;52.380;9.962;2023-06-26T05:33:31;32.03;26.65;46.43;;
80324;Laerm;69639;52.380;9.962;2023-06-26T05:35:36;28.48;26.73;34.34;;
80324;Laerm;69639;52.380;9.962;2023-06-26T05:37:40;28.87;26.91;32.99;;
80324;Laerm;69639;52.380;9.962;2023-06-26T05:39:43;29.12;26.45;34.45;;
80324;Laerm;69639;52.380;9.962;2023-06-26T05:41:50;27.91;26.67;33.45;;
80324;Laerm;69639;52.380;9.962;2023-06-26T05:43:52;27.87;26.49;40.86;;
80324;Laerm;69639;52.380;9.962;2023-06-26T05:45:54;28.93;26.68;37.79;;
80324;Laerm;69639;52.380;9.962;2023-06-26T05:47:55;27.86;26.70;33.78;;
80324;Laerm;69639;52.380;9.962;2023-06-26T05:49:57;31.18;26.44;45.22;;
80324;Laerm;69639;52.380;9.962;2023-06-26T05:51:59;27.90;26.62;32.88;;
80324;Laerm;69639;52.380;9.962;2023-06-26T05:54:01;28.14;26.31;47.25;;
80324;Laerm;69639;52.380;9.962;2023-06-26T05:56:03;27.90;26.53;38.95;;
80324;Laerm;69639;52.380;9.962;2023-06-26T05:58:05;34.20;26.53;61.12;;
80324;Laerm;69639;52.380;9.962;2023-06-26T06:00:07;31.91;26.46;53.56;;
80324;Laerm;69639;52.380;9.962;2023-06-26T06:02:09;30.64;26.51;52.51;;
80324;Laerm;69639;52.380;9.962;2023-06-26T06:04:11;28.61;26.46;44.55;;
80324;Laerm;69639;52.380;9.962;2023-06-26T06:06:12;31.35;26.48;55.24;;
80324;Laerm;69639;52.380;9.962;2023-06-26T06:08:14;34.38;26.56;59.44;;
80324;Laerm;69639;52.380;9.962;2023-06-26T06:10:16;32.28;26.53;50.81;;
80324;Laerm;69639;52.380;9.962;2023-06-26T06:12:18;33.03;26.31;54.70;;
80324;Laerm;69639;52.380;9.962;2023-06-26T06:14:19;31.70;26.52;50.56;;
80324;Laerm;69639;52.380;9.962;2023-06-26T06:16:21;35.47;26.34;60.97;;
80324;Laerm;69639;52.380;9.962;2023-06-26T06:18:23;33.02;26.58;56.50;;
80324;Laerm;69639;52.380;9.962;2023-06-26T06:20:25;34.62;27.66;53.79;;
80324;Laerm;69639;52.380;9.962;2023-06-26T06:22:27;28.39;26.32;37.80;;
80324;Laerm;69639;52.380;9.962;2023-06-26T06:24:29;35.53;26.39;57.16;;
80324;Laerm;69639;52.380;9.962;2023-06-26T06:26:38;33.09;27.18;49.44;;
80324;Laerm;69639;52.380;9.962;2023-06-26T06:28:40;33.63;26.27;53.63;;
80324;Laerm;69639;52.380;9.962;2023-06-26T06:30:42;29.54;26.26;55.26;;
80324;Laerm;69639;52.380;9.962;2023-06-26T06:32:44;28.40;26.07;44.74;;
80324;Laerm;69639;52.380;9.962;2023-06-26T06:34:46;28.99;26.29;45.03;;
80324;Laerm;69639;52.380;9.962;2023-06-26T06:36:49;29.61;26.28;46.53;;
80324;Laerm;69639;52.380;9.962;2023-06-26T06:38:50;31.90;27.16;39.00;;
80324;Laerm;69639;52.380;9.962;2023-06-26T06:40:52;29.55;26.66;42.37;;
80324;Laerm;69639;52.380;9.962;2023-06-26T06:42:54;27.79;26.27;39.65;;
80324;Laerm;69639;52.380;9.962;2023-06-26T06:44:55;28.05;26.49;51.49;;
80324;Laerm;69639;52.380;9.962;2023-06-26T06:46:57;29.29;26.91;37.17;;
80324;Laerm;69639;52.380;9.962;2023-06-26T06:48:59;29.17;27.19;39.53;;
80324;Laerm;69639;52.380;9.962;2023-06-26T06:51:01;32.72;27.24;56.78;;
80324;Laerm;69639;52.380;9.962;2023-06-26T06:53:02;28.45;26.54;37.27;;
80324;Laerm;69639;52.380;9.962;2023-06-26T06:55:04;27.97;26.55;38.22;;
80324;Laerm;69639;52.380;9.962;2023-06-26T06:57:06;28.25;26.16;38.76;;
80324;Laerm;69639;52.380;9.962;2023-06-26T06:59:08;28.79;26.29;33.05;;
80324;Laerm;69639;52.380;9.962;2023-06-26T07:01:10;28.87;27.52;32.73;;
80324;Laerm;69639;52.380;9.962;2023-06-26T07:03:11;29.85;27.29;38.00;;
80324;Laerm;69639;52.380;9.962;2023-06-26T07:05:13;30.51;26.47;52.93;;
80324;Laerm;69639;52.380;9.962;2023-06-26T07:07:19;28.21;26.25;43.78;;
80324;Laerm;69639;52.380;9.962;2023-06-26T07:09:21;34.47;26.48;55.41;;
80324;Laerm;69639;52.380;9.962;2023-06-26T07:11:23;32.42;26.51;54.37;;
80324;Laerm;69639;52.380;9.962;2023-06-26T07:13:24;37.14;27.30;63.43;;
80324;Laerm;69639;52.380;9.962;2023-06-26T07:15:27;45.12;26.65;73.64;;
80324;Laerm;69639;52.380;9.962;2023-06-26T07:17:29;46.84;26.61;70.99;;
80324;Laerm;69639;52.380;9.962;2023-06-26T07:19:30;39.22;26.59;64.38;;
80324;Laerm;69639;52.380;9.962;2023-06-26T07:21:32;32.21;28.93;52.89;;
80324;Laerm;69639;52.380;9.962;2023-06-26T07:23:34;30.63;27.31;47.56;;
80324;Laerm;69639;52.380;9.962;2023-06-26T07:25:36;36.03;26.89;64.51;;
80324;Laerm;69639;52.380;9.962;2023-06-26T07:27:38;30.27;26.51;46.99;;
80324;Laerm;69639;52.380;9.962;2023-06-26T07:29:40;30.54;26.86;45.48;;
80324;Laerm;69639;52.380;9.962;2023-06-26T07:31:41;31.40;27.59;46.45;;
80324;Laerm;69639;52.380;9.962;2023-06-26T07:33:43;45.32;29.58;72.80;;
80324;Laerm;69639;52.380;9.962;2023-06-26T07:35:45;51.77;30.62;71.10;;
80324;Laerm;69639;52.380;9.962;2023-06-26T07:37:46;40.69;30.35;57.39;;
80324;Laerm;69639;52.380;9.962;2023-06-26T07:39:51;52.03;30.41;68.27;;
80324;Laerm;69639;52.380;9.962;2023-06-26T07:41:52;51.58;32.56;66.22;;
80324;Laerm;69639;52.380;9.962;2023-06-26T07:43:54;50.06;28.41;68.62;;
80324;Laerm;69639;52.380;9.962;2023-06-26T07:45:56;50.85;28.81;70.31;;
80324;Laerm;69639;52.380;9.962;2023-06-26T07:47:58;42.47;29.05;57.11;;
80324;Laerm;69639;52.380;9.962;2023-06-26T07:49:59;43.05;29.50;57.45;;
80324;Laerm;69639;52.380;9.962;2023-06-26T07:52:03;41.64;29.01;56.05;;
80324;Laerm;69639;52.380;9.962;2023-06-26T07:54:05;34.65;28.99;51.38;;
80324;Laerm;69639;52.380;9.962;2023-06-26T07:56:06;31.13;28.42;50.36;;
80324;Laerm;69639;52.380;9.962;2023-06-26T07:58:08;30.68;28.52;37.64;;
80324;Laerm;69639;52.380;9.962;2023-06-26T08:00:10;31.55;27.77;40.50;;
80324;Laerm;69639;52.380;9.962;2023-06-26T08:02:12;29.27;26.94;36.91;;
80324;Laerm;69639;52.380;9.962;2023-06-26T08:04:14;29.74;26.64;44.02;;
80324;Laerm;69639;52.380;9.962;2023-06-26T08:06:15;28.73;26.94;37.53;;
80324;Laerm;69639;52.380;9.962;2023-06-26T08:08:17;29.13;26.77;40.57;;
80324;Laerm;69639;52.380;9.962;2023-06-26T08:10:19;29.98;26.63;43.19;;
80324;Laerm;69639;52.380;9.962;2023-06-26T08:12:20;29.20;26.79;44.41;;
80324;Laerm;69639;52.380;9.962;2023-06-26T08:14:23;29.92;26.69;40.79;;
80324;Laerm;69639;52.380;9.962;2023-06-26T08:16:24;30.13;27.02;50.64;;
80324;Laerm;69639;52.380;9.962;2023-06-26T08:18:26;29.83;26.95;45.63;;
80324;Laerm;69639;52.380;9.962;2023-06-26T08:20:28;29.78;27.06;43.59;;
80324;Laerm;69639;52.380;9.962;2023-06-26T08:22:30;30.10;27.00;49.10;;
80324;Laerm;69639;52.380;9.962;2023-06-26T08:24:31;30.98;26.76;58.62;;
80324;Laerm;69639;52.380;9.962;2023-06-26T08:26:34;28.56;26.95;37.90;;
80324;Laerm;69639;52.380;9.962;2023-06-26T08:28:35;28.97;26.54;42.47;;
80324;Laerm;69639;52.380;9.962;2023-06-26T08:30:37;39.83;26.90;61.67;;
80324;Laerm;69639;52.380;9.962;2023-06-26T08:32:39;29.76;26.88;51.85;;
80324;Laerm;69639;52.380;9.962;2023-06-26T08:34:41;28.65;26.95;41.86;;
80324;Laerm;69639;52.380;9.962;2023-06-26T08:36:43;28.73;27.07;38.83;;
80324;Laerm;69639;52.380;9.962;2023-06-26T08:38:44;29.04;26.91;42.85;;
80324;Laerm;69639;52.380;9.962;2023-06-26T08:40:47;30.16;26.73;46.08;;
80324;Laerm;69639;52.380;9.962;2023-06-26T08:42:49;30.01;26.93;43.13;;
80324;Laerm;69639;52.380;9.962;2023-06-26T08:44:52;30.17;27.00;51.48;;
80324;Laerm;69639;52.380;9.962;2023-06-26T08:46:54;30.31;27.01;49.30;;
80324;Laerm;69639;52.380;9.962;2023-06-26T08:48:57;29.72;26.93;43.72;;
80324;Laerm;69639;52.380;9.962;2023-06-26T08:51:09;29.43;26.78;40.91;;
80324;Laerm;69639;52.380;9.962;2023-06-26T08:53:15;29.40;26.95;43.01;;
80324;Laerm;69639;52.380;9.962;2023-06-26T08:55:21;29.08;26.98;42.72;;
80324;Laerm;69639;52.380;9.962;2023-06-26T08:57:25;29.31;26.82;41.92;;
80324;Laerm;69639;52.380;9.962;2023-06-26T08:59:28;29.00;26.94;41.52;;
80324;Laerm;69639;52.380;9.962;2023-06-26T09:01:31;28.90;26.86;39.52;;
80324;Laerm;69639;52.380;9.962;2023-06-26T09:03:33;28.76;26.98;34.65;;
80324;Laerm;69639;52.380;9.962;2023-06-26T09:05:35;36.30;26.89;66.43;;
80324;Laerm;69639;52.380;9.962;2023-06-26T09:07:37;29.72;27.08;45.19;;
80324;Laerm;69639;52.380;9.962;2023-06-26T09:09:39;29.13;26.98;38.52;;
80324;Laerm;69639;52.380;9.962;2023-06-26T09:11:41;29.59;26.81;45.63;;
80324;Laerm;69639;52.380;9.962;2023-06-26T09:13:43;30.04;26.99;44.77;;
80324;Laerm;69639;52.380;9.962;2023-06-26T09:15:45;29.18;27.03;43.54;;
80324;Laerm;69639;52.380;9.962;2023-06-26T09:17:48;29.76;27.09;42.10;;
80324;Laerm;69639;52.380;9.962;2023-06-26T09:19:50;28.55;26.95;35.72;;
80324;Laerm;69639;52.380;9.962;2023-06-26T09:21:52;29.33;27.00;41.93;;
80324;Laerm;69639;52.380;9.962;2023-06-26T09:23:54;28.72;27.17;37.64;;
80324;Laerm;69639;52.380;9.962;2023-06-26T09:25:58;29.37;26.77;50.58;;
80324;Laerm;69639;52.380;9.962;2023-06-26T09:28:00;28.95;26.98;43.38;;
80324;Laerm;69639;52.380;9.962;2023-06-26T09:30:05;29.71;27.04;44.86;;
80324;Laerm;69639;52.380;9.962;2023-06-26T09:32:08;28.60;27.02;42.99;;
80324;Laerm;69639;52.380;9.962;2023-06-26T09:34:10;28.48;27.12;35.66;;
80324;Laerm;69639;52.380;9.962;2023-06-26T09:36:20;28.44;27.00;40.27;;
80324;Laerm;69639;52.380;9.962;2023-06-26T09:38:22;29.84;27.10;46.55;;
80324;Laerm;69639;52.380;9.962;2023-06-26T09:40:34;33.74;27.15;51.70;;
80324;Laerm;69639;52.380;9.962;2023-06-26T09:42:37;28.88;27.04;38.71;;
80324;Laerm;69639;52.380;9.962;2023-06-26T09:44:43;29.95;27.16;50.94;;
80324;Laerm;69639;52.380;9.962;2023-06-26T09:46:45;33.49;27.42;54.01;;
80324;Laerm;69639;52.380;9.962;2023-06-26T09:48:47;29.23;27.19;39.93;;
80324;Laerm;69639;52.380;9.962;2023-06-26T09:50:49;29.68;27.11;44.40;;
80324;Laerm;69639;52.380;9.962;2023-06-26T09:52:51;28.64;27.10;37.58;;
80324;Laerm;69639;52.380;9.962;2023-06-26T09:55:09;30.27;27.02;45.59;;
80324;Laerm;69639;52.380;9.962;2023-06-26T09:57:13;31.83;27.09;52.04;;
80324;Laerm;69639;52.380;9.962;2023-06-26T09:59:15;29.10;27.32;39.53;;
80324;Laerm;69639;52.380;9.962;2023-06-26T10:01:19;28.95;27.09;38.95;;
80324;Laerm;69639;52.380;9.962;2023-06-26T10:03:20;28.83;27.19;38.43;;
80324;Laerm;69639;52.380;9.962;2023-06-26T10:05:22;28.93;26.85;41.52;;
80324;Laerm;69639;52.380;9.962;2023-06-26T10:07:24;28.20;27.00;31.70;;
80324;Laerm;69639;52.380;9.962;2023-06-26T10:09:27;44.79;27.13;67.43;;
80324;Laerm;69639;52.380;9.962;2023-06-26T10:11:34;34.48;28.07;53.04;;
80324;Laerm;69639;52.380;9.962;2023-06-26T10:13:39;34.88;28.34;51.26;;
80324;Laerm;69639;52.380;9.962;2023-06-26T10:15:45;34.41;28.64;50.54;;
80324;Laerm;69639;52.380;9.962;2023-06-26T10:17:48;40.04;28.59;58.69;;
80324;Laerm;69639;52.380;9.962;2023-06-26T10:19:58;32.07;28.21;47.16;;
80324;Laerm;69639;52.380;9.962;2023-06-26T10:22:02;38.91;28.62;67.66;;
80324;Laerm;69639;52.380;9.962;2023-06-26T10:24:05;33.68;28.62;45.68;;
80324;Laerm;69639;52.380;9.962;2023-06-26T10:26:08;34.74;28.75;52.47;;
80324;Laerm;69639;52.380;9.962;2023-06-26T10:28:12;36.83;30.36;54.72;;
80324;Laerm;69639;52.380;9.962;2023-06-26T10:30:18;34.89;29.77;41.05;;
80324;Laerm;69639;52.380;9.962;2023-06-26T10:32:25;39.49;30.38;61.42;;
80324;Laerm;69639;52.380;9.962;2023-06-26T10:34:27;36.06;29.77;48.45;;
80324;Laerm;69639;52.380;9.962;2023-06-26T10:36:31;35.70;29.49;48.31;;
80324;Laerm;69639;52.380;9.962;2023-06-26T10:38:55;36.30;30.30;60.65;;
80324;Laerm;69639;52.380;9.962;2023-06-26T10:41:10;43.37;30.89;60.38;;
80324;Laerm;69639;52.380;9.962;2023-06-26T10:43:15;34.62;29.40;49.68;;
80324;Laerm;69639;52.380;9.962;2023-06-26T10:45:20;36.65;29.67;53.79;;
80324;Laerm;69639;52.380;9.962;2023-06-26T10:47:31;38.63;29.77;57.73;;
80324;Laerm;69639;52.380;9.962;2023-06-26T10:49:35;38.29;30.02;60.46;;
80324;Laerm;69639;52.380;9.962;2023-06-26T10:51:45;41.96;27.23;63.36;;
80324;Laerm;69639;52.380;9.962;2023-06-26T10:53:54;28.24;26.62;35.53;;
80324;Laerm;69639;52.380;9.962;2023-06-26T10:56:04;28.01;26.73;38.30;;
80324;Laerm;69639;52.380;9.962;2023-06-26T10:58:32;28.14;26.67;38.63;;
80324;Laerm;69639;52.380;9.962;2023-06-26T11:00:49;28.34;26.70;36.78;;
80324;Laerm;69639;52.380;9.962;2023-06-26T11:02:51;30.41;26.78;42.48;;
80324;Laerm;69639;52.380;9.962;2023-06-26T11:04:59;34.47;29.89;40.13;;
80324;Laerm;69639;52.380;9.962;2023-06-26T11:07:25;38.45;29.96;45.43;;
80324;Laerm;69639;52.380;9.962;2023-06-26T11:09:56;37.69;29.80;53.48;;
80324;Laerm;69639;52.380;9.962;2023-06-26T11:11:59;43.63;29.75;59.05;;
80324;Laerm;69639;52.380;9.962;2023-06-26T11:14:07;41.93;30.46;57.54;;
80324;Laerm;69639;52.380;9.962;2023-06-26T11:16:13;47.51;35.94;63.62;;
80324;Laerm;69639;52.380;9.962;2023-06-26T11:18:16;48.24;33.14;60.87;;
80324;Laerm;69639;52.380;9.962;2023-06-26T11:20:20;43.18;32.29;56.74;;
80324;Laerm;69639;52.380;9.962;2023-06-26T11:22:24;42.45;26.80;58.25;;
80324;Laerm;69639;52.380;9.962;2023-06-26T11:24:33;44.34;26.98;59.77;;
80324;Laerm;69639;52.380;9.962;2023-06-26T11:26:39;39.73;26.74;55.73;;
80324;Laerm;69639;52.380;9.962;2023-06-26T11:28:52;37.85;27.50;54.45;;
80324;Laerm;69639;52.380;9.962;2023-06-26T11:30:53;39.68;27.47;62.67;;
80324;Laerm;69639;52.380;9.962;2023-06-26T11:33:06;29.04;27.46;37.31;;
80324;Laerm;69639;52.380;9.962;2023-06-26T11:35:08;29.02;27.35;37.57;;